Time;durP1;ratioP1;P1;durP2;ratioP2;P2;SDS_P1;SDS_P2;PMS_P1;PMS_P2;Temp;Humidity;BMP_temperature;BMP_pressure;BME280_temperature;BME280_humidity;BME280_pressure;Samples;Min_cycle;Max_cycle;Signal;HPM_P1;HPM_P2
2023/03/01 00:01:52;;;;;;;15.68;7.22;;;4.60;99.90;;;;;;4919899;29;20458;-58
2023/03/01 00:04:19;;;;;;;12.57;6.40;;;4.70;99.90;;;;;;4944735;29;20495;-57
2023/03/01 00:06:46;;;;;;;11.75;6.55;;;4.60;99.90;;;;;;4944491;29;20134;-56
2023/03/01 00:09:14;;;;;;;10.10;6.97;;;4.60;99.90;;;;;;4952098;29;20146;-56
2023/03/01 00:11:40;;;;;;;10.57;6.78;;;4.60;99.90;;;;;;4943639;29;20039;-56
2023/03/01 00:14:07;;;;;;;11.50;6.32;;;4.60;99.90;;;;;;4951315;29;20578;-55
2023/03/01 00:16:39;;;;;;;10.05;6.05;;;4.70;99.90;;;;;;4952507;29;20043;-55
2023/03/01 00:19:15;;;;;;;11.40;7.00;;;4.70;99.90;;;;;;4935944;29;20441;-57
2023/03/01 00:21:42;;;;;;;11.85;6.18;;;4.60;99.90;;;;;;4952122;29;20057;-57
2023/03/01 00:24:09;;;;;;;11.10;7.43;;;4.60;99.90;;;;;;4952038;29;20051;-55
2023/03/01 00:26:36;;;;;;;14.18;6.05;;;4.60;99.90;;;;;;4934784;29;20063;-56
2023/03/01 00:29:02;;;;;;;11.82;7.18;;;4.60;99.90;;;;;;4948999;29;20055;-56
2023/03/01 00:31:31;;;;;;;12.07;6.72;;;4.60;99.90;;;;;;4952446;28;20426;-57
2023/03/01 00:34:02;;;;;;;8.45;6.30;;;4.50;99.90;;;;;;4952223;29;20134;-56
2023/03/01 00:36:31;;;;;;;12.05;7.22;;;4.50;99.90;;;;;;4919908;29;20047;-57
2023/03/01 00:38:58;;;;;;;16.63;6.68;;;4.50;99.90;;;;;;4951795;29;20138;-58
2023/03/01 00:41:28;;;;;;;14.13;7.90;;;4.50;99.90;;;;;;4952506;29;20079;-57
2023/03/01 00:43:55;;;;;;;11.60;7.25;;;4.50;99.90;;;;;;4951831;29;20079;-56
2023/03/01 00:46:25;;;;;;;13.82;7.65;;;4.50;99.90;;;;;;4933124;29;20134;-57
2023/03/01 00:48:51;;;;;;;12.00;7.55;;;4.50;99.90;;;;;;4947821;29;20542;-57
2023/03/01 00:51:20;;;;;;;16.05;7.45;;;4.50;99.90;;;;;;4952340;29;20752;-57
2023/03/01 00:53:47;;;;;;;16.55;10.50;;;4.40;99.90;;;;;;4951415;29;20142;-56
2023/03/01 00:56:14;;;;;;;16.95;7.88;;;4.50;99.90;;;;;;4935035;29;20059;-56
2023/03/01 00:58:41;;;;;;;13.93;7.63;;;4.50;99.90;;;;;;4951681;29;20051;-57
2023/03/01 01:01:18;;;;;;;16.20;8.50;;;4.50;99.90;;;;;;4952126;29;20058;-57
2023/03/01 01:04:02;;;;;;;11.82;8.00;;;4.50;99.90;;;;;;4951378;29;20050;-58
2023/03/01 01:06:50;;;;;;;14.23;7.22;;;4.50;99.90;;;;;;4951673;29;20498;-57
2023/03/01 01:09:17;;;;;;;20.50;8.10;;;4.40;99.90;;;;;;4951627;29;20051;-55
2023/03/01 01:11:49;;;;;;;14.43;8.27;;;4.50;99.90;;;;;;4951915;29;20047;-56
2023/03/01 01:14:16;;;;;;;25.10;8.70;;;4.50;99.90;;;;;;4951344;29;20114;-57
2023/03/01 01:16:43;;;;;;;14.60;8.73;;;4.50;99.90;;;;;;4951773;29;20047;-56
2023/03/01 01:19:10;;;;;;;11.43;7.57;;;4.50;99.90;;;;;;4951376;29;20040;-57
2023/03/01 01:21:37;;;;;;;21.65;9.15;;;4.50;99.90;;;;;;4951820;29;20055;-56
2023/03/01 01:24:04;;;;;;;14.80;8.02;;;4.50;99.90;;;;;;4951029;29;20057;-57
2023/03/01 01:26:32;;;;;;;18.50;9.60;;;4.40;99.90;;;;;;4951365;29;20504;-54
2023/03/01 01:29:00;;;;;;;13.10;7.60;;;4.50;99.90;;;;;;4934157;29;20533;-58
2023/03/01 01:31:27;;;;;;;15.98;8.70;;;4.50;99.90;;;;;;4951696;29;20698;-57
2023/03/01 01:33:55;;;;;;;15.45;7.85;;;4.50;99.90;;;;;;4951033;29;20054;-58
2023/03/01 01:36:21;;;;;;;11.48;8.20;;;4.50;99.90;;;;;;4951424;29;20126;-57
2023/03/01 01:38:48;;;;;;;13.13;8.18;;;4.50;99.90;;;;;;4951287;29;20146;-58
2023/03/01 01:41:15;;;;;;;13.30;7.72;;;4.60;99.90;;;;;;4950964;28;20058;-58
2023/03/01 01:43:47;;;;;;;11.88;7.55;;;4.60;99.90;;;;;;4950819;29;20055;-56
2023/03/01 01:46:32;;;;;;;12.90;7.90;;;4.60;99.90;;;;;;4950793;29;20043;-56
2023/03/01 01:49:00;;;;;;;12.07;7.43;;;4.60;99.90;;;;;;4918653;29;20070;-57
2023/03/01 01:51:37;;;;;;;14.70;8.48;;;4.70;99.90;;;;;;4950439;29;20082;-54
2023/03/01 01:54:14;;;;;;;16.70;7.43;;;4.70;99.90;;;;;;4920493;29;20051;-56
2023/03/01 01:56:42;;;;;;;9.52;7.50;;;4.60;99.90;;;;;;4598636;28;10000114;-56
2023/03/01 01:59:09;;;;;;;13.20;7.60;;;4.60;99.90;;;;;;4933340;29;20126;-54
2023/03/01 02:01:35;;;;;;;10.73;7.30;;;4.50;99.90;;;;;;4933494;29;20556;-54
2023/03/01 02:04:02;;;;;;;12.95;8.25;;;4.50;99.90;;;;;;4950840;29;20066;-56
2023/03/01 02:06:32;;;;;;;12.55;8.02;;;4.50;99.90;;;;;;4950672;29;20070;-54
2023/03/01 02:09:01;;;;;;;15.13;7.93;;;4.50;99.90;;;;;;4951076;29;20051;-55
2023/03/01 02:11:30;;;;;;;14.05;8.32;;;4.50;99.90;;;;;;4933740;29;20502;-56
2023/03/01 02:13:56;;;;;;;11.88;7.88;;;4.50;99.90;;;;;;4933590;29;20057;-55
2023/03/01 02:16:23;;;;;;;12.80;8.00;;;4.60;99.90;;;;;;4950329;29;20043;-56
2023/03/01 02:18:50;;;;;;;10.63;7.55;;;4.60;99.90;;;;;;4933643;29;20051;-56
2023/03/01 02:21:32;;;;;;;13.82;7.45;;;4.70;99.90;;;;;;4950207;29;20671;-56
2023/03/01 02:24:01;;;;;;;11.60;7.68;;;4.70;99.90;;;;;;4933846;29;20051;-54
2023/03/01 02:26:31;;;;;;;12.07;7.40;;;4.80;99.90;;;;;;4932906;29;20396;-56
2023/03/01 02:28:58;;;;;;;13.45;7.55;;;4.80;99.90;;;;;;4950605;29;20084;-56
2023/03/01 02:31:43;;;;;;;12.52;7.25;;;4.80;99.90;;;;;;4933139;29;20046;-56
2023/03/01 02:34:13;;;;;;;12.95;7.38;;;4.80;99.90;;;;;;4935883;29;20051;-54
2023/03/01 02:36:42;;;;;;;11.00;6.28;;;4.80;99.90;;;;;;4933145;29;20053;-54
2023/03/01 02:39:14;;;;;;;12.88;5.90;;;4.80;99.90;;;;;;4917768;29;20130;-56
2023/03/01 02:41:42;;;;;;;8.52;5.00;;;4.90;99.90;;;;;;4917540;29;20525;-56
2023/03/01 02:44:09;;;;;;;10.35;5.03;;;4.90;99.90;;;;;;4947686;29;20051;-54
2023/03/01 02:46:42;;;;;;;9.75;4.57;;;4.80;99.90;;;;;;4947564;29;20074;-53
2023/03/01 02:49:38;;;;;;;7.18;4.10;;;4.90;99.90;;;;;;4930705;29;20582;-54
2023/03/01 02:52:30;;;;;;;7.43;3.65;;;4.90;99.90;;;;;;4927106;29;20098;-54
2023/03/01 02:55:13;;;;;;;9.88;4.00;;;4.90;99.90;;;;;;4935314;29;20118;-56
2023/03/01 02:57:42;;;;;;;9.80;3.65;;;4.90;99.90;;;;;;4951500;29;20840;-56
2023/03/01 03:00:19;;;;;;;8.20;2.72;;;5.00;99.90;;;;;;4934171;29;20063;-56
2023/03/01 03:02:50;;;;;;;4.78;2.78;;;5.00;99.90;;;;;;4934379;29;20057;-56
2023/03/01 03:05:22;;;;;;;6.28;3.05;;;5.00;99.90;;;;;;4934564;29;20118;-55
2023/03/01 03:07:49;;;;;;;6.47;2.97;;;5.00;99.90;;;;;;4950888;29;20171;-51
2023/03/01 03:10:21;;;;;;;9.02;2.72;;;5.10;99.90;;;;;;4951049;29;20083;-55
2023/03/01 03:12:50;;;;;;;7.07;2.60;;;5.10;99.90;;;;;;4950765;29;20499;-52
2023/03/01 03:15:17;;;;;;;8.18;3.03;;;5.00;99.90;;;;;;4950941;29;20146;-53
2023/03/01 03:17:44;;;;;;;3.60;2.28;;;5.10;99.90;;;;;;4932863;29;20059;-54
2023/03/01 03:20:18;;;;;;;5.68;2.88;;;5.10;99.90;;;;;;4943383;29;20060;-56
2023/03/01 03:22:46;;;;;;;4.73;2.60;;;5.10;99.90;;;;;;4919958;29;20510;-56
2023/03/01 03:25:13;;;;;;;12.88;3.15;;;5.20;99.90;;;;;;4950207;29;20058;-57
2023/03/01 03:27:41;;;;;;;6.28;2.88;;;5.10;99.90;;;;;;4950522;29;20047;-54
2023/03/01 03:30:08;;;;;;;6.07;3.03;;;5.10;99.90;;;;;;4933584;29;20047;-55
2023/03/01 03:32:36;;;;;;;4.45;2.88;;;5.10;99.90;;;;;;4934592;29;20141;-54
2023/03/01 03:35:09;;;;;;;5.28;2.45;;;5.00;99.90;;;;;;4950489;29;20057;-60
2023/03/01 03:40:29;;;;;;;6.90;2.83;;;5.00;99.90;;;;;;4951180;29;20055;-56
2023/03/01 03:42:56;;;;;;;7.80;2.28;;;5.10;99.90;;;;;;4953267;29;20137;-55
2023/03/01 03:45:23;;;;;;;5.63;2.03;;;5.00;99.90;;;;;;4952433;29;20545;-56
2023/03/01 03:47:49;;;;;;;11.05;2.20;;;5.10;99.90;;;;;;4954086;29;20055;-54
2023/03/01 03:50:16;;;;;;;4.70;2.10;;;5.10;99.90;;;;;;4956302;28;20121;-55
2023/03/01 03:52:43;;;;;;;5.68;2.45;;;5.10;99.90;;;;;;4952663;29;20047;-54
2023/03/01 03:55:11;;;;;;;8.25;2.00;;;5.10;99.90;;;;;;4950614;29;20051;-53
2023/03/01 03:57:38;;;;;;;2.85;2.20;;;5.00;99.90;;;;;;4933417;29;20773;-55
2023/03/01 04:00:12;;;;;;;5.40;1.75;;;5.10;99.90;;;;;;4933419;29;20051;-53
2023/03/01 04:02:42;;;;;;;5.07;2.10;;;5.00;99.90;;;;;;4932956;29;20062;-55
2023/03/01 04:05:10;;;;;;;7.78;1.90;;;5.10;99.90;;;;;;4949051;28;20619;-56
2023/03/01 04:07:37;;;;;;;13.48;3.47;;;5.10;99.90;;;;;;4953334;28;20063;-55
2023/03/01 04:10:06;;;;;;;4.15;2.17;;;5.00;99.90;;;;;;4950225;29;20055;-55
2023/03/01 04:12:33;;;;;;;5.13;1.70;;;5.00;99.90;;;;;;4950126;29;20059;-56
2023/03/01 04:15:01;;;;;;;4.50;2.25;;;5.00;99.90;;;;;;4949875;29;20751;-57
2023/03/01 04:17:28;;;;;;;2.67;1.80;;;4.90;99.90;;;;;;4949828;29;20475;-55
2023/03/01 04:19:54;;;;;;;5.93;2.20;;;5.00;99.90;;;;;;4949396;29;20138;-54
2023/03/01 04:22:21;;;;;;;5.70;2.15;;;5.00;99.90;;;;;;4955384;28;20676;-55
2023/03/01 04:24:48;;;;;;;4.72;1.77;;;5.00;99.90;;;;;;4949629;29;20057;-56
2023/03/01 04:27:15;;;;;;;2.97;1.95;;;5.00;99.90;;;;;;4949751;29;20057;-55
2023/03/01 04:29:42;;;;;;;3.92;1.83;;;5.00;99.90;;;;;;4949462;29;20519;-57
2023/03/01 04:32:08;;;;;;;4.18;1.85;;;5.00;99.90;;;;;;4949857;29;20082;-55
2023/03/01 04:34:35;;;;;;;5.35;1.70;;;5.00;99.90;;;;;;4949732;29;20051;-56
2023/03/01 04:37:02;;;;;;;5.28;1.83;;;5.00;99.90;;;;;;4955478;28;20145;-56
2023/03/01 04:39:29;;;;;;;1.42;1.27;;;5.00;99.90;;;;;;4949775;29;20043;-58
2023/03/01 04:41:56;;;;;;;3.00;1.73;;;5.10;99.90;;;;;;4948991;29;20066;-57
2023/03/01 04:44:22;;;;;;;6.57;1.88;;;5.10;99.90;;;;;;4949396;29;20326;-55
2023/03/01 04:46:50;;;;;;;4.22;2.00;;;5.10;99.90;;;;;;4948930;29;20047;-56
2023/03/01 04:49:16;;;;;;;7.18;1.92;;;5.10;99.90;;;;;;4949404;29;20055;-57
2023/03/01 04:51:43;;;;;;;6.30;1.73;;;5.00;99.90;;;;;;4949008;29;20474;-57
2023/03/01 04:54:10;;;;;;;4.05;1.90;;;5.10;99.90;;;;;;4952773;28;20051;-55
2023/03/01 04:56:37;;;;;;;3.78;1.58;;;5.10;99.90;;;;;;4932183;29;20143;-56
2023/03/01 04:59:05;;;;;;;6.03;1.70;;;5.00;99.90;;;;;;4949174;29;20055;-55
2023/03/01 05:01:32;;;;;;;5.97;1.38;;;5.00;99.90;;;;;;4948625;29;20055;-54
2023/03/01 05:04:02;;;;;;;3.95;2.20;;;5.00;99.90;;;;;;4949279;29;20049;-56
2023/03/01 05:06:29;;;;;;;7.20;2.55;;;5.00;99.90;;;;;;4932012;29;20126;-57
2023/03/01 05:08:56;;;;;;;2.90;1.70;;;5.00;99.90;;;;;;4951291;28;20062;-57
2023/03/01 05:11:23;;;;;;;4.13;1.55;;;5.00;99.90;;;;;;4948593;29;20051;-57
2023/03/01 05:13:54;;;;;;;2.17;1.27;;;5.10;99.90;;;;;;4948771;29;20047;-54
2023/03/01 05:16:21;;;;;;;2.47;1.40;;;5.00;99.90;;;;;;4948554;28;20249;-54
2023/03/01 05:18:50;;;;;;;5.32;1.70;;;5.00;99.90;;;;;;4951240;29;20503;-53
2023/03/01 05:21:17;;;;;;;2.85;1.35;;;5.00;99.90;;;;;;4951157;29;20146;-54
2023/03/01 05:23:44;;;;;;;2.33;1.30;;;5.00;99.90;;;;;;4955363;28;20471;-55
2023/03/01 05:26:12;;;;;;;3.30;1.40;;;5.00;99.90;;;;;;4951347;29;20091;-57
2023/03/01 05:28:58;;;;;;;4.78;2.20;;;5.00;99.90;;;;;;4951091;29;20557;-56
2023/03/01 05:31:25;;;;;;;2.95;1.45;;;5.00;99.90;;;;;;4950449;29;20113;-56
2023/03/01 05:33:52;;;;;;;8.98;3.80;;;5.00;99.90;;;;;;4950023;29;20569;-56
2023/03/01 05:36:19;;;;;;;3.40;1.65;;;5.10;99.90;;;;;;4951181;29;20070;-56
2023/03/01 05:38:45;;;;;;;5.55;1.40;;;5.10;99.90;;;;;;4950530;29;20049;-56
2023/03/01 05:41:16;;;;;;;4.03;1.45;;;5.10;99.90;;;;;;4950670;29;20142;-57
2023/03/01 05:43:44;;;;;;;4.03;1.50;;;5.10;99.90;;;;;;4950536;29;20054;-56
2023/03/01 05:46:13;;;;;;;7.47;1.60;;;5.00;99.90;;;;;;4950993;29;20054;-55
2023/03/01 05:48:40;;;;;;;2.22;1.45;;;5.00;99.90;;;;;;4950425;29;20047;-57
2023/03/01 05:51:06;;;;;;;3.70;1.80;;;5.00;99.90;;;;;;4950620;29;20495;-56
2023/03/01 05:53:33;;;;;;;1.85;1.15;;;5.00;99.90;;;;;;4950315;29;20051;-54
2023/03/01 05:56:03;;;;;;;2.88;1.40;;;4.90;99.90;;;;;;4950815;29;20138;-56
2023/03/01 05:58:30;;;;;;;2.05;1.30;;;5.10;99.90;;;;;;4950676;29;20047;-55
2023/03/01 06:00:57;;;;;;;2.42;1.65;;;5.10;99.90;;;;;;4950619;29;20055;-56
2023/03/01 06:03:24;;;;;;;4.40;1.92;;;5.10;99.90;;;;;;4950329;29;20122;-54
2023/03/01 06:05:56;;;;;;;5.50;1.40;;;5.00;99.90;;;;;;4950483;29;20141;-55
2023/03/01 06:08:24;;;;;;;4.60;1.48;;;5.00;99.90;;;;;;4933203;29;20126;-56
2023/03/01 06:10:50;;;;;;;5.28;1.60;;;5.00;99.90;;;;;;4950394;29;20046;-57
2023/03/01 06:13:17;;;;;;;1.52;1.23;;;5.00;99.90;;;;;;4950206;29;20058;-54
2023/03/01 06:15:44;;;;;;;2.35;1.45;;;5.00;99.90;;;;;;4950568;29;20133;-54
2023/03/01 06:18:10;;;;;;;2.42;1.40;;;5.00;99.90;;;;;;4950270;29;20147;-52
2023/03/01 06:20:37;;;;;;;2.42;1.67;;;5.00;99.90;;;;;;4948958;29;20053;-54
2023/03/01 06:23:04;;;;;;;2.38;1.45;;;5.00;99.90;;;;;;4950257;29;20058;-53
2023/03/01 06:25:31;;;;;;;1.98;1.55;;;5.00;99.90;;;;;;4950022;29;20051;-56
2023/03/01 06:27:58;;;;;;;4.15;1.30;;;4.90;99.90;;;;;;4950224;28;20061;-57
2023/03/01 06:30:25;;;;;;;3.72;1.13;;;4.90;99.90;;;;;;4932836;29;20051;-57
2023/03/01 06:32:52;;;;;;;3.30;1.30;;;4.90;99.90;;;;;;4950083;29;20150;-57
2023/03/01 06:35:19;;;;;;;1.98;1.17;;;4.90;99.90;;;;;;4950137;29;20047;-57
2023/03/01 06:37:46;;;;;;;6.50;1.40;;;4.90;99.90;;;;;;4933127;29;20625;-56
2023/03/01 06:40:13;;;;;;;2.63;1.60;;;4.90;99.90;;;;;;4932861;29;20047;-57
2023/03/01 06:42:42;;;;;;;7.93;2.40;;;4.90;99.90;;;;;;4950160;29;20098;-62
2023/03/01 06:45:09;;;;;;;2.80;2.00;;;4.90;99.90;;;;;;4949619;29;20050;-56
2023/03/01 06:47:36;;;;;;;2.38;1.70;;;4.90;99.90;;;;;;4933173;29;20057;-57
2023/03/01 06:50:03;;;;;;;8.98;2.67;;;4.90;99.90;;;;;;4949946;29;20051;-55
2023/03/01 06:52:30;;;;;;;6.05;2.13;;;5.00;99.90;;;;;;4950321;29;20300;-55
2023/03/01 06:54:57;;;;;;;4.93;2.00;;;5.00;99.90;;;;;;4949871;29;20137;-56
2023/03/01 06:57:23;;;;;;;3.92;2.15;;;5.00;99.90;;;;;;4949963;29;20047;-56
2023/03/01 06:59:50;;;;;;;6.25;3.05;;;4.90;99.90;;;;;;4949579;29;20059;-56
2023/03/01 07:02:17;;;;;;;3.60;2.10;;;5.00;99.90;;;;;;4949486;29;20529;-56
2023/03/01 07:04:44;;;;;;;4.45;2.83;;;5.00;99.90;;;;;;4949786;29;20054;-55
2023/03/01 07:07:10;;;;;;;10.70;3.88;;;5.10;99.90;;;;;;4948534;29;20062;-57
2023/03/01 07:09:37;;;;;;;6.28;2.35;;;5.00;99.90;;;;;;4950016;29;20075;-54
2023/03/01 07:12:04;;;;;;;6.88;2.83;;;5.00;99.90;;;;;;4949485;29;20054;-54
2023/03/01 07:14:31;;;;;;;7.25;2.17;;;5.00;99.90;;;;;;4949797;29;20137;-56
2023/03/01 07:16:58;;;;;;;4.38;3.03;;;5.00;99.90;;;;;;4948660;29;20164;-55
2023/03/01 07:19:25;;;;;;;3.97;1.90;;;4.90;99.90;;;;;;4606656;28;10000671;-57
2023/03/01 07:21:51;;;;;;;13.63;2.60;;;5.00;99.90;;;;;;4948916;29;20043;-54
2023/03/01 07:24:18;;;;;;;4.10;1.73;;;5.00;99.90;;;;;;4932642;29;20055;-51
2023/03/01 07:26:51;;;;;;;5.32;1.80;;;4.90;99.90;;;;;;4949541;29;20055;-51
2023/03/01 07:29:18;;;;;;;5.43;1.95;;;4.90;99.90;;;;;;4932569;29;20079;-53
2023/03/01 07:31:45;;;;;;;7.32;1.67;;;4.90;99.90;;;;;;4932033;29;20051;-56
2023/03/01 07:34:11;;;;;;;4.85;2.05;;;4.90;99.90;;;;;;4949340;29;20048;-57
2023/03/01 07:36:39;;;;;;;3.67;1.60;;;5.20;99.90;;;;;;4949174;29;20101;-54
2023/03/01 07:39:06;;;;;;;4.57;1.30;;;5.00;99.90;;;;;;4949400;28;20047;-57
2023/03/01 07:41:33;;;;;;;8.93;2.15;;;5.00;99.90;;;;;;4951479;29;20051;-54
2023/03/01 07:44:00;;;;;;;2.17;1.20;;;5.00;99.90;;;;;;4952594;29;20053;-56
2023/03/01 07:46:26;;;;;;;3.75;1.35;;;5.00;99.90;;;;;;4951462;29;20074;-57
2023/03/01 07:48:53;;;;;;;4.47;1.75;;;5.10;99.90;;;;;;4950815;29;20047;-55
2023/03/01 07:51:20;;;;;;;4.78;1.90;;;5.10;99.90;;;;;;4951882;29;20051;-56
2023/03/01 07:53:48;;;;;;;2.20;1.20;;;5.20;99.90;;;;;;4952410;29;20416;-56
2023/03/01 07:56:17;;;;;;;7.90;1.75;;;5.00;99.90;;;;;;4950325;29;20134;-56
2023/03/01 07:58:44;;;;;;;5.57;1.42;;;5.10;99.90;;;;;;4949738;29;20071;-57
2023/03/01 08:01:13;;;;;;;3.10;1.50;;;5.20;99.90;;;;;;4951083;29;20131;-56
2023/03/01 08:03:39;;;;;;;9.05;1.70;;;5.30;99.90;;;;;;4949770;29;20583;-54
2023/03/01 08:06:07;;;;;;;3.08;1.50;;;5.30;99.90;;;;;;4933750;29;20541;-51
2023/03/01 08:08:34;;;;;;;2.00;1.42;;;5.40;99.90;;;;;;4950891;29;20452;-52
2023/03/01 08:11:02;;;;;;;3.70;1.88;;;5.30;99.90;;;;;;4952244;29;20047;-56
2023/03/01 08:13:29;;;;;;;7.25;1.48;;;5.30;99.90;;;;;;4952917;29;20118;-53
2023/03/01 08:16:01;;;;;;;2.03;1.50;;;5.30;99.90;;;;;;4953373;29;20085;-58
2023/03/01 08:18:28;;;;;;;4.63;1.67;;;5.40;99.90;;;;;;4953139;29;20087;-53
2023/03/01 08:20:55;;;;;;;6.78;2.88;;;5.40;99.90;;;;;;4936687;29;20494;-54
2023/03/01 08:23:22;;;;;;;7.68;1.70;;;5.50;99.90;;;;;;4953212;29;20043;-55
2023/03/01 08:25:49;;;;;;;3.85;1.55;;;5.50;99.90;;;;;;4953540;29;20518;-56
2023/03/01 08:28:15;;;;;;;8.65;2.53;;;5.60;99.90;;;;;;4952434;29;20047;-53
2023/03/01 08:30:42;;;;;;;8.40;3.25;;;5.60;99.90;;;;;;4952381;29;20086;-56
2023/03/01 08:33:09;;;;;;;4.57;1.60;;;5.70;99.90;;;;;;4951385;29;20044;-53
2023/03/01 08:35:36;;;;;;;4.43;2.35;;;5.70;99.90;;;;;;4934857;29;20055;-54
2023/03/01 08:38:02;;;;;;;4.63;1.75;;;5.70;99.90;;;;;;4951821;29;20062;-55
2023/03/01 08:40:29;;;;;;;5.35;1.60;;;5.80;99.90;;;;;;4952182;29;20047;-57
2023/03/01 08:42:56;;;;;;;6.57;1.73;;;5.80;99.90;;;;;;4952064;29;20054;-56
2023/03/01 08:45:23;;;;;;;4.15;1.58;;;5.80;99.90;;;;;;4934804;29;20052;-55
2023/03/01 08:47:52;;;;;;;3.50;1.80;;;5.80;99.90;;;;;;4952123;29;20142;-55
2023/03/01 08:50:19;;;;;;;6.50;1.45;;;5.80;99.90;;;;;;4951662;29;20073;-56
2023/03/01 08:52:46;;;;;;;9.55;1.33;;;5.80;99.90;;;;;;4951168;28;20095;-55
2023/03/01 08:55:14;;;;;;;3.13;1.50;;;5.90;99.90;;;;;;4951383;29;20047;-58
2023/03/01 08:57:41;;;;;;;4.28;1.60;;;5.90;99.90;;;;;;4951881;29;20487;-55
2023/03/01 09:00:09;;;;;;;3.70;1.42;;;6.00;99.90;;;;;;4951622;29;20134;-57
2023/03/01 09:02:36;;;;;;;3.97;1.23;;;5.90;99.90;;;;;;4934753;29;20261;-55
2023/03/01 09:05:03;;;;;;;5.38;1.80;;;5.90;99.90;;;;;;4933951;29;20050;-58
2023/03/01 09:07:30;;;;;;;7.65;1.88;;;6.00;99.90;;;;;;4951738;29;20094;-56
2023/03/01 09:09:57;;;;;;;2.40;1.15;;;6.00;99.90;;;;;;4951439;29;20118;-58
2023/03/01 09:12:24;;;;;;;4.85;1.30;;;6.00;99.90;;;;;;4951694;29;20099;-55
2023/03/01 09:14:51;;;;;;;7.20;3.08;;;6.00;99.90;;;;;;4951203;29;20043;-57
2023/03/01 09:17:21;;;;;;;6.85;1.73;;;6.00;99.90;;;;;;4951522;29;20055;-56
2023/03/01 09:19:49;;;;;;;3.22;1.20;;;5.90;99.90;;;;;;4951099;29;20131;-53
2023/03/01 09:22:15;;;;;;;2.80;1.33;;;5.90;99.90;;;;;;4940744;29;20217;-53
2023/03/01 09:24:42;;;;;;;6.43;1.83;;;6.00;99.90;;;;;;4951133;29;20066;-56
2023/03/01 09:27:10;;;;;;;5.95;1.45;;;6.10;99.90;;;;;;4951472;29;20167;-54
2023/03/01 09:29:37;;;;;;;2.50;1.40;;;6.10;99.90;;;;;;4951011;29;20135;-56
2023/03/01 09:32:03;;;;;;;3.80;1.10;;;6.20;99.90;;;;;;4951003;29;20118;-57
2023/03/01 09:34:31;;;;;;;4.25;1.20;;;6.20;99.90;;;;;;4951043;29;20051;-57
2023/03/01 09:36:58;;;;;;;10.18;1.13;;;6.30;99.90;;;;;;4950815;29;20051;-57
2023/03/01 09:39:25;;;;;;;7.97;1.40;;;6.40;99.90;;;;;;4951317;29;20051;-57
2023/03/01 09:42:02;;;;;;;5.65;1.67;;;6.40;99.90;;;;;;4950920;29;20054;-56
2023/03/01 09:44:48;;;;;;;3.88;1.52;;;6.50;99.90;;;;;;4915313;29;20134;-57
2023/03/01 09:47:20;;;;;;;2.95;1.65;;;6.60;99.90;;;;;;4958096;28;20058;-53
2023/03/01 09:50:11;;;;;;;4.95;1.50;;;6.60;99.90;;;;;;4951170;29;20055;-57
2023/03/01 09:52:54;;;;;;;3.00;1.63;;;6.50;99.90;;;;;;4936409;29;20434;-58
2023/03/01 09:55:44;;;;;;;4.38;1.85;;;6.60;99.90;;;;;;4933616;29;20078;-57
2023/03/01 09:58:25;;;;;;;2.92;1.45;;;6.60;99.90;;;;;;4948631;29;20470;-56
2023/03/01 10:00:52;;;;;;;3.38;1.60;;;6.70;99.90;;;;;;4933515;29;20053;-58
2023/03/01 10:03:39;;;;;;;6.10;1.95;;;6.70;99.90;;;;;;4950212;28;20067;-57
2023/03/01 10:06:15;;;;;;;3.20;1.55;;;6.80;99.90;;;;;;4933286;29;20109;-56
2023/03/01 10:09:07;;;;;;;7.32;1.70;;;6.80;99.90;;;;;;4914575;29;20121;-55
2023/03/01 10:11:38;;;;;;;;;;;6.80;99.90;;;;;;4918159;29;20051;-56
2023/03/01 10:14:30;;;;;;;5.82;2.83;;;6.70;99.90;;;;;;4918196;29;20021;-56
2023/03/01 10:17:00;;;;;;;2.97;1.40;;;6.80;99.90;;;;;;4933071;29;20058;-54
2023/03/01 10:19:38;;;;;;;5.80;2.00;;;6.80;99.90;;;;;;4933875;29;20085;-56
2023/03/01 10:22:22;;;;;;;4.22;1.60;;;6.80;99.90;;;;;;4932362;29;20054;-57
2023/03/01 10:24:49;;;;;;;;;;;6.80;99.90;;;;;;4950758;29;20051;-53
2023/03/01 10:27:29;;;;;;;3.92;1.70;;;6.90;99.90;;;;;;4933056;29;19926;-58
2023/03/01 10:30:19;;;;;;;7.25;1.48;;;7.00;99.90;;;;;;4950352;29;20059;-53
2023/03/01 10:32:48;;;;;;;3.42;1.15;;;7.00;99.90;;;;;;4949859;29;20040;-54
2023/03/01 10:35:24;;;;;;;3.63;1.27;;;7.10;99.90;;;;;;4950322;29;20087;-57
2023/03/01 10:38:11;;;;;;;3.15;1.20;;;7.30;99.90;;;;;;4949972;29;20051;-57
2023/03/01 10:40:58;;;;;;;2.92;1.23;;;7.30;99.90;;;;;;4932991;29;20495;-56
2023/03/01 10:43:26;;;;;;;1.80;1.10;;;7.30;99.90;;;;;;4949853;29;20063;-56
2023/03/01 10:45:53;;;;;;;0.73;0.70;;;7.30;99.90;;;;;;4917362;29;20048;-56
2023/03/01 10:48:29;;;;;;;1.13;0.65;;;7.30;99.90;;;;;;4949900;29;20079;-56
2023/03/01 10:50:58;;;;;;;2.35;0.82;;;7.30;99.90;;;;;;4949997;29;20143;-58
2023/03/01 10:53:36;;;;;;;3.50;0.63;;;7.20;99.90;;;;;;4949625;29;20138;-55
2023/03/01 10:56:10;;;;;;;0.57;0.45;;;7.20;99.90;;;;;;4950239;29;20130;-55
2023/03/01 10:58:37;;;;;;;2.25;0.63;;;7.20;99.90;;;;;;4949919;29;20122;-57
2023/03/01 11:01:14;;;;;;;1.58;0.80;;;7.20;99.90;;;;;;4932759;29;20084;-54
2023/03/01 11:03:41;;;;;;;4.38;1.30;;;7.20;99.90;;;;;;4949469;29;20512;-58
2023/03/01 11:06:10;;;;;;;3.42;0.88;;;7.20;99.90;;;;;;4932966;29;20052;-58
2023/03/01 11:08:41;;;;;;;3.10;0.90;;;7.20;99.90;;;;;;4949707;29;20069;-56
2023/03/01 11:11:33;;;;;;;1.77;0.80;;;7.20;99.90;;;;;;4933129;29;20079;-57
2023/03/01 11:14:22;;;;;;;2.00;0.70;;;7.30;99.90;;;;;;4932461;28;20142;-59
2023/03/01 11:17:27;;;;;;;4.00;1.10;;;7.30;99.90;;;;;;4953599;29;20404;-54
2023/03/01 11:20:20;;;;;;;1.02;0.65;;;7.40;99.90;;;;;;4926064;29;20126;-57
2023/03/01 11:22:52;;;;;;;4.53;1.05;;;7.50;99.90;;;;;;4925024;29;20119;-55
2023/03/01 11:25:20;;;;;;;3.08;0.85;;;7.40;99.90;;;;;;4965953;28;20051;-55
2023/03/01 11:27:47;;;;;;;4.30;1.70;;;7.40;99.90;;;;;;4936564;29;20131;-56
2023/03/01 11:30:27;;;;;;;2.78;0.85;;;7.40;99.90;;;;;;4920224;29;20066;-54
2023/03/01 11:33:24;;;;;;;4.40;0.95;;;7.40;99.90;;;;;;4932701;29;20079;-54
2023/03/01 11:35:57;;;;;;;3.63;1.05;;;7.40;99.90;;;;;;4920681;29;20070;-57
2023/03/01 11:38:25;;;;;;;4.28;1.13;;;7.40;99.90;;;;;;4936835;29;20071;-54
2023/03/01 11:41:11;;;;;;;6.00;1.25;;;7.30;99.90;;;;;;4952739;29;20097;-57
2023/03/01 11:44:01;;;;;;;3.78;1.00;;;7.40;99.90;;;;;;4953070;29;20057;-54
2023/03/01 11:46:37;;;;;;;1.20;1.02;;;7.30;99.90;;;;;;4936149;29;20070;-57
2023/03/01 11:49:25;;;;;;;3.22;0.90;;;7.30;99.90;;;;;;4920188;29;20604;-55
2023/03/01 11:52:11;;;;;;;4.78;0.60;;;7.30;99.90;;;;;;4952585;29;20047;-57
2023/03/01 11:55:02;;;;;;;0.77;0.63;;;7.20;99.90;;;;;;4952936;29;20223;-57
2023/03/01 11:57:53;;;;;;;3.30;1.00;;;7.20;99.90;;;;;;4942752;29;20047;-56
2023/03/01 12:00:35;;;;;;;3.05;0.80;;;7.30;99.90;;;;;;4935316;29;20517;-54
2023/03/01 12:03:30;;;;;;;1.50;0.60;;;7.30;99.90;;;;;;4935567;29;20047;-55
2023/03/01 12:06:23;;;;;;;1.95;0.82;;;7.20;99.90;;;;;;4921997;29;20057;-55
2023/03/01 12:09:14;;;;;;;4.53;0.90;;;7.30;99.90;;;;;;4952844;29;20057;-54
2023/03/01 12:11:57;;;;;;;1.85;0.80;;;7.40;99.90;;;;;;4938230;29;20047;-57
2023/03/01 12:14:39;;;;;;;0.80;0.50;;;7.40;99.90;;;;;;4916549;29;20051;-57
2023/03/01 12:17:16;;;;;;;1.42;0.60;;;7.30;99.90;;;;;;4950754;29;20055;-56
2023/03/01 12:19:53;;;;;;;1.70;0.82;;;7.30;99.90;;;;;;4935522;29;20055;-56
2023/03/01 12:22:29;;;;;;;2.17;1.00;;;7.30;99.90;;;;;;4952012;29;20098;-57
2023/03/01 12:25:13;;;;;;;1.77;0.80;;;7.30;99.90;;;;;;4952504;29;20073;-56
2023/03/01 12:28:00;;;;;;;3.60;0.90;;;7.30;99.90;;;;;;4951746;28;20056;-55
2023/03/01 12:30:46;;;;;;;5.15;0.85;;;7.20;99.90;;;;;;4952228;29;20142;-57
2023/03/01 12:33:20;;;;;;;5.18;0.95;;;7.30;99.90;;;;;;4952158;29;20130;-57
2023/03/01 12:36:24;;;;;;;4.78;1.30;;;7.30;99.90;;;;;;4935479;29;20054;-57
2023/03/01 12:39:30;;;;;;;1.67;1.10;;;7.30;99.90;;;;;;4952268;29;20047;-57
2023/03/01 12:42:15;;;;;;;1.35;0.90;;;7.30;99.90;;;;;;4912185;29;20538;-55
2023/03/01 12:45:02;;;;;;;2.95;1.05;;;7.30;99.90;;;;;;4954184;29;20130;-57
2023/03/01 12:47:47;;;;;;;8.13;0.95;;;7.30;99.90;;;;;;4936920;29;20090;-57
2023/03/01 12:50:24;;;;;;;3.15;0.95;;;7.40;99.90;;;;;;4936850;29;20047;-58
2023/03/01 12:52:57;;;;;;;2.17;1.05;;;7.40;99.90;;;;;;4920791;29;20487;-57
2023/03/01 12:55:35;;;;;;;5.60;1.30;;;7.50;99.90;;;;;;4935083;29;20494;-56
2023/03/01 12:58:17;;;;;;;2.50;1.20;;;7.70;99.90;;;;;;4934860;29;20061;-55
2023/03/01 13:00:52;;;;;;;9.68;1.40;;;7.60;99.90;;;;;;4935860;29;20155;-58
2023/03/01 13:03:29;;;;;;;3.95;1.35;;;7.60;99.90;;;;;;4951175;29;20439;-57
2023/03/01 13:06:13;;;;;;;8.60;1.33;;;7.60;99.90;;;;;;4934878;29;20051;-56
2023/03/01 13:08:51;;;;;;;4.65;1.77;;;7.60;99.90;;;;;;4934225;29;20051;-56
2023/03/01 13:11:22;;;;;;;2.60;1.27;;;7.60;99.90;;;;;;4931105;29;20138;-58
2023/03/01 13:13:48;;;;;;;3.22;1.63;;;7.60;99.90;;;;;;4967389;28;20047;-58
2023/03/01 13:16:36;;;;;;;16.33;3.83;;;7.50;99.90;;;;;;4950751;29;20054;-57
2023/03/01 13:19:17;;;;;;;4.63;1.35;;;7.40;99.90;;;;;;4950890;29;20051;-52
2023/03/01 13:21:45;;;;;;;5.50;1.25;;;7.40;99.90;;;;;;4930879;29;20497;-57